Time;durP1;ratioP1;P1;durP2;ratioP2;P2;SDS_P1;SDS_P2;PMS_P1;PMS_P2;Temp;Humidity;BMP_temperature;BMP_pressure;BME280_temperature;BME280_humidity;BME280_pressure;Samples;Min_cycle;Max_cycle;Signal;HPM_P1;HPM_P2
2024/04/07 00:00:24;;;;;;;11.18;5.80;;;17.10;99.90;;;;;;5008751;28;20026;-49
2024/04/07 00:02:51;;;;;;;7.70;5.25;;;17.10;99.90;;;;;;5031384;23;20103;-52
2024/04/07 00:05:17;;;;;;;8.02;5.28;;;17.00;99.90;;;;;;5010673;28;20500;-54
2024/04/07 00:07:43;;;;;;;9.50;5.72;;;17.00;99.90;;;;;;5011612;28;20034;-54
2024/04/07 00:10:09;;;;;;;7.10;5.32;;;16.90;99.90;;;;;;5011502;28;20108;-52
2024/04/07 00:12:35;;;;;;;7.43;5.20;;;16.90;99.90;;;;;;5011954;28;20040;-49
2024/04/07 00:15:01;;;;;;;13.80;6.65;;;16.80;99.90;;;;;;5011929;28;20049;-50
2024/04/07 00:17:26;;;;;;;9.27;5.97;;;16.80;99.90;;;;;;5011770;28;20026;-48
2024/04/07 00:19:52;;;;;;;12.93;5.70;;;16.70;99.90;;;;;;5010349;28;20092;-51
2024/04/07 00:22:17;;;;;;;8.35;5.30;;;16.60;99.90;;;;;;5011914;28;20033;-52
2024/04/07 00:24:44;;;;;;;12.20;5.32;;;16.60;99.90;;;;;;4993979;28;20061;-47
2024/04/07 00:27:09;;;;;;;11.63;5.50;;;16.50;99.90;;;;;;5011526;28;20053;-55
2024/04/07 00:29:35;;;;;;;11.65;6.65;;;16.50;99.90;;;;;;5011237;28;20096;-51
2024/04/07 00:32:00;;;;;;;11.63;6.47;;;16.50;99.90;;;;;;5011425;28;20033;-52
2024/04/07 00:34:26;;;;;;;13.82;6.53;;;16.40;99.90;;;;;;5011568;28;20100;-52
2024/04/07 00:36:51;;;;;;;9.07;6.15;;;16.40;99.90;;;;;;5011601;28;20113;-49
2024/04/07 00:39:17;;;;;;;10.85;5.90;;;16.40;99.90;;;;;;5011412;28;20037;-53
2024/04/07 00:41:43;;;;;;;12.52;5.43;;;16.50;99.90;;;;;;4993998;28;20130;-50
2024/04/07 00:44:08;;;;;;;13.75;5.78;;;16.60;99.90;;;;;;5011438;28;20029;-51
2024/04/07 00:46:34;;;;;;;12.68;6.22;;;16.50;99.90;;;;;;5011273;28;20022;-55
2024/04/07 00:49:01;;;;;;;15.98;6.10;;;16.50;99.90;;;;;;5013835;28;20394;-50
2024/04/07 00:51:27;;;;;;;10.95;5.50;;;16.40;99.90;;;;;;5014838;28;20025;-54
2024/04/07 00:53:54;;;;;;;7.80;6.00;;;16.30;99.90;;;;;;5014776;28;20029;-54
2024/04/07 00:56:20;;;;;;;12.05;5.78;;;16.20;99.90;;;;;;5014742;28;20045;-49
2024/04/07 00:58:47;;;;;;;9.98;4.72;;;16.20;99.90;;;;;;5014580;28;20148;-50
2024/04/07 01:01:12;;;;;;;7.90;5.38;;;16.40;99.90;;;;;;5014609;28;20026;-51
2024/04/07 01:03:38;;;;;;;8.73;5.60;;;16.50;99.90;;;;;;5014209;28;20041;-48
2024/04/07 01:06:03;;;;;;;8.85;5.22;;;16.50;99.90;;;;;;5014573;28;20033;-51
2024/04/07 01:08:29;;;;;;;8.45;4.35;;;16.50;99.90;;;;;;5014236;28;20061;-53
2024/04/07 01:10:55;;;;;;;11.95;4.68;;;16.40;99.90;;;;;;5014367;28;20030;-47
2024/04/07 01:13:27;;;;;;;12.95;5.15;;;16.40;99.90;;;;;;5014394;28;20022;-52
2024/04/07 01:15:52;;;;;;;11.90;5.53;;;16.30;99.90;;;;;;5014505;28;20507;-51
2024/04/07 01:18:19;;;;;;;10.55;4.50;;;16.20;99.90;;;;;;5014235;28;20104;-47
2024/04/07 01:20:44;;;;;;;8.82;4.57;;;16.10;99.90;;;;;;5014348;28;20030;-51
2024/04/07 01:23:17;;;;;;;5.47;4.03;;;16.10;99.90;;;;;;5014338;28;20486;-51
2024/04/07 01:25:43;;;;;;;6.95;4.38;;;16.10;99.90;;;;;;5014089;28;20034;-51
2024/04/07 01:28:09;;;;;;;10.57;4.65;;;16.10;99.90;;;;;;5014166;28;20367;-50
2024/04/07 01:30:34;;;;;;;5.68;4.50;;;16.10;99.90;;;;;;4996315;28;20117;-50
2024/04/07 01:33:00;;;;;;;5.25;4.20;;;16.20;99.90;;;;;;5013863;28;20033;-54
2024/04/07 01:35:25;;;;;;;6.80;3.60;;;16.30;99.90;;;;;;5012759;28;20303;-50
2024/04/07 01:37:51;;;;;;;10.85;4.55;;;16.30;99.90;;;;;;5014066;28;20029;-50
2024/04/07 01:40:16;;;;;;;5.40;3.45;;;16.30;99.90;;;;;;5013569;28;20044;-51
2024/04/07 01:42:42;;;;;;;8.15;3.78;;;16.40;99.90;;;;;;5013742;28;20417;-53
2024/04/07 01:45:09;;;;;;;6.72;3.88;;;16.30;99.90;;;;;;5013728;28;20022;-48
2024/04/07 01:47:35;;;;;;;12.95;3.92;;;16.40;99.90;;;;;;5013577;28;20026;-53
2024/04/07 01:50:01;;;;;;;4.03;3.63;;;16.40;99.90;;;;;;4995903;28;20028;-52
2024/04/07 01:52:27;;;;;;;5.68;3.85;;;16.50;99.90;;;;;;5013803;28;20092;-54
2024/04/07 01:54:53;;;;;;;4.57;3.83;;;16.60;99.90;;;;;;5013449;28;20026;-54
2024/04/07 01:57:19;;;;;;;7.18;3.05;;;16.60;99.90;;;;;;5013535;28;20028;-52
2024/04/07 01:59:44;;;;;;;7.07;3.65;;;16.70;99.90;;;;;;5012189;28;20034;-53
2024/04/07 02:02:10;;;;;;;6.10;3.35;;;16.80;99.90;;;;;;5013321;28;20189;-48
2024/04/07 02:04:36;;;;;;;5.80;3.42;;;16.80;99.90;;;;;;4995713;28;20033;-50
2024/04/07 02:07:02;;;;;;;5.40;3.38;;;16.90;99.90;;;;;;5013333;28;20037;-52
2024/04/07 02:09:28;;;;;;;11.77;3.50;;;16.90;99.90;;;;;;5013072;28;20076;-49
2024/04/07 02:11:54;;;;;;;5.38;4.05;;;16.90;99.90;;;;;;5013095;28;20033;-51
2024/04/07 02:14:20;;;;;;;6.70;3.58;;;17.00;99.90;;;;;;5013232;28;20034;-50
2024/04/07 02:16:45;;;;;;;7.13;3.92;;;17.00;99.90;;;;;;5013336;28;20507;-54
2024/04/07 02:19:13;;;;;;;8.75;3.58;;;16.90;99.90;;;;;;5012706;28;20236;-54
2024/04/07 02:21:38;;;;;;;12.43;3.75;;;16.80;99.90;;;;;;5013061;28;20018;-50
2024/04/07 02:24:04;;;;;;;5.28;3.67;;;16.80;99.90;;;;;;5012820;28;20040;-54
2024/04/07 02:26:30;;;;;;;13.07;4.45;;;16.50;99.90;;;;;;5012977;28;20465;-52
2024/04/07 02:28:56;;;;;;;5.13;3.42;;;16.40;99.90;;;;;;5012601;28;20061;-48
2024/04/07 02:31:21;;;;;;;6.78;3.58;;;16.30;99.90;;;;;;4995269;28;20034;-51
2024/04/07 02:33:47;;;;;;;9.00;3.63;;;16.20;99.90;;;;;;5013027;28;20029;-48
2024/04/07 02:36:18;;;;;;;5.18;3.20;;;16.20;99.90;;;;;;5011554;28;20068;-53
2024/04/07 02:38:44;;;;;;;10.20;3.92;;;16.20;99.90;;;;;;5012615;28;20026;-49
2024/04/07 02:41:11;;;;;;;8.55;3.50;;;16.20;99.90;;;;;;4995260;28;20237;-50
2024/04/07 02:43:36;;;;;;;5.13;3.00;;;16.30;99.90;;;;;;5012448;28;20163;-54
2024/04/07 02:48:46;;;;;;;5.22;3.85;;;16.20;99.90;;;;;;5012584;28;20060;-52
2024/04/07 02:51:11;;;;;;;7.55;3.72;;;16.10;99.90;;;;;;5012419;28;20501;-51
2024/04/07 02:53:38;;;;;;;6.82;3.53;;;16.10;99.90;;;;;;5012349;28;20029;-54
2024/04/07 02:56:04;;;;;;;8.43;3.65;;;16.10;99.90;;;;;;5012645;28;20474;-50
2024/04/07 02:58:30;;;;;;;5.88;2.88;;;16.20;99.90;;;;;;5012220;28;20032;-49
2024/04/07 03:01:05;;;;;;;7.80;3.30;;;16.20;99.90;;;;;;5012285;28;20401;-48
2024/04/07 03:03:32;;;;;;;7.05;2.90;;;16.30;99.90;;;;;;5012102;28;20442;-53
2024/04/07 03:05:58;;;;;;;9.20;3.40;;;16.40;99.90;;;;;;5012101;28;20109;-51
2024/04/07 03:08:23;;;;;;;8.43;2.97;;;16.50;99.90;;;;;;5011859;28;20100;-54
2024/04/07 03:10:59;;;;;;;4.97;3.25;;;16.50;99.90;;;;;;5011686;28;20044;-48
2024/04/07 03:13:25;;;;;;;6.75;3.42;;;16.50;99.90;;;;;;5012237;28;20021;-54
2024/04/07 03:15:51;;;;;;;5.82;3.10;;;16.50;99.90;;;;;;5012141;28;20029;-51
2024/04/07 03:18:16;;;;;;;7.10;4.18;;;16.50;99.90;;;;;;5011750;28;20018;-52
2024/04/07 03:20:42;;;;;;;5.95;2.80;;;16.50;99.90;;;;;;5012012;28;20121;-51
2024/04/07 03:23:07;;;;;;;5.70;2.80;;;16.50;99.90;;;;;;5011967;28;20410;-50
2024/04/07 03:25:33;;;;;;;7.70;3.20;;;16.50;99.90;;;;;;5012211;28;20075;-48
2024/04/07 03:27:58;;;;;;;5.40;3.15;;;16.50;99.90;;;;;;5012128;28;20026;-46
2024/04/07 03:30:24;;;;;;;5.07;2.97;;;16.60;99.90;;;;;;5011655;28;20040;-53
2024/04/07 03:32:49;;;;;;;6.07;3.30;;;16.50;99.90;;;;;;5012065;28;20517;-54
2024/04/07 03:35:15;;;;;;;8.77;3.35;;;16.60;99.90;;;;;;5011992;28;20025;-46
2024/04/07 03:37:41;;;;;;;8.40;2.75;;;16.60;99.90;;;;;;5011853;28;20033;-50
2024/04/07 03:40:07;;;;;;;4.35;2.80;;;16.60;99.90;;;;;;5011686;28;20018;-49
2024/04/07 03:42:32;;;;;;;5.47;2.47;;;16.70;99.90;;;;;;5011651;28;20369;-50
2024/04/07 03:44:58;;;;;;;8.98;2.67;;;16.70;99.90;;;;;;5011865;28;20105;-49
2024/04/07 03:47:23;;;;;;;5.35;2.60;;;16.90;99.90;;;;;;5011721;28;20493;-48
2024/04/07 03:49:49;;;;;;;3.30;2.50;;;17.00;99.90;;;;;;5011504;28;20473;-54
2024/04/07 03:52:14;;;;;;;3.35;2.30;;;17.00;99.90;;;;;;5011557;28;20038;-51
2024/04/07 03:54:40;;;;;;;3.05;2.30;;;17.10;99.90;;;;;;5011660;28;20116;-48
2024/04/07 03:57:05;;;;;;;4.82;2.50;;;17.20;99.90;;;;;;5011656;28;20049;-50
2024/04/07 03:59:31;;;;;;;6.53;2.30;;;17.20;99.90;;;;;;5011402;28;20199;-49
2024/04/07 04:02:00;;;;;;;4.55;2.22;;;17.30;99.90;;;;;;5011311;28;20026;-49
2024/04/07 04:04:26;;;;;;;2.85;2.53;;;17.40;99.90;;;;;;5011623;28;20053;-52
2024/04/07 04:06:51;;;;;;;8.57;2.17;;;17.40;99.90;;;;;;5011396;28;20650;-50
2024/04/07 04:09:16;;;;;;;9.85;2.13;;;17.60;99.90;;;;;;5011176;28;20028;-46
2024/04/07 04:11:42;;;;;;;6.05;1.98;;;17.50;99.90;;;;;;4993927;28;20524;-48
2024/04/07 04:14:08;;;;;;;6.60;2.60;;;17.60;99.90;;;;;;4993917;28;20030;-53
2024/04/07 04:16:33;;;;;;;3.65;1.85;;;17.60;99.90;;;;;;5011592;28;20097;-50
2024/04/07 04:18:59;;;;;;;6.18;1.95;;;17.60;99.90;;;;;;5011187;28;20029;-51
2024/04/07 04:21:24;;;;;;;8.07;2.10;;;17.60;99.90;;;;;;5011445;28;20032;-51
2024/04/07 04:23:50;;;;;;;13.13;2.95;;;17.60;99.90;;;;;;5012886;28;20466;-49
2024/04/07 04:26:15;;;;;;;3.65;1.90;;;17.70;99.90;;;;;;5015611;28;20036;-51
2024/04/07 04:28:41;;;;;;;4.35;1.83;;;17.60;99.90;;;;;;5014759;28;20088;-50
2024/04/07 04:31:09;;;;;;;3.90;1.85;;;17.50;99.90;;;;;;5014990;28;20382;-51
2024/04/07 04:33:34;;;;;;;3.22;1.90;;;17.50;99.90;;;;;;5015105;28;20389;-48
2024/04/07 04:36:00;;;;;;;4.40;2.15;;;17.50;99.90;;;;;;5014972;28;20029;-53
2024/04/07 04:38:25;;;;;;;10.18;2.30;;;17.50;99.90;;;;;;5014975;28;20069;-52
2024/04/07 04:40:56;;;;;;;12.50;2.45;;;17.50;99.90;;;;;;5014853;28;20026;-52
2024/04/07 04:43:22;;;;;;;6.90;2.03;;;17.60;99.90;;;;;;5014922;28;20026;-48
2024/04/07 04:46:00;;;;;;;3.53;1.95;;;17.50;99.90;;;;;;5014991;28;20045;-50
2024/04/07 04:48:25;;;;;;;9.50;2.15;;;17.50;99.90;;;;;;5014737;28;20069;-52
2024/04/07 04:50:54;;;;;;;5.38;3.00;;;17.50;99.90;;;;;;5014770;28;20034;-48
2024/04/07 04:53:19;;;;;;;4.57;2.00;;;17.60;99.90;;;;;;5014766;28;20120;-51
2024/04/07 04:55:45;;;;;;;5.82;2.10;;;17.60;99.90;;;;;;5014754;28;20046;-50
2024/04/07 04:58:10;;;;;;;7.25;2.00;;;17.50;99.90;;;;;;4996974;28;20024;-48
2024/04/07 05:00:36;;;;;;;2.35;1.92;;;17.50;99.90;;;;;;5014608;28;20037;-52
2024/04/07 05:03:01;;;;;;;10.65;2.15;;;17.50;99.90;;;;;;5014470;28;20046;-48
2024/04/07 05:05:27;;;;;;;4.80;2.20;;;17.50;99.90;;;;;;5014713;28;20030;-49
2024/04/07 05:07:52;;;;;;;5.05;2.17;;;17.40;99.90;;;;;;4997058;28;20125;-50
2024/04/07 05:10:18;;;;;;;7.50;2.08;;;17.40;99.90;;;;;;5014326;28;20025;-52
2024/04/07 05:12:44;;;;;;;3.70;1.95;;;17.30;99.90;;;;;;5015109;28;20018;-55
2024/04/07 05:15:09;;;;;;;3.88;1.88;;;17.30;99.90;;;;;;5014747;28;20026;-51
2024/04/07 05:17:35;;;;;;;5.45;2.20;;;17.30;99.90;;;;;;5014627;28;20026;-53
2024/04/07 05:20:00;;;;;;;4.68;2.30;;;17.30;99.90;;;;;;5012897;28;20021;-48
2024/04/07 05:22:26;;;;;;;6.00;2.45;;;17.30;99.90;;;;;;5014680;28;20164;-49
2024/04/07 05:24:51;;;;;;;4.20;2.10;;;17.30;99.90;;;;;;5014557;28;20030;-49
2024/04/07 05:27:17;;;;;;;3.90;1.90;;;17.30;99.90;;;;;;5014939;28;20040;-50
2024/04/07 05:29:47;;;;;;;8.30;2.10;;;17.30;99.90;;;;;;4996727;28;20034;-52
2024/04/07 05:32:12;;;;;;;4.70;1.95;;;17.40;99.90;;;;;;4996690;28;20033;-54
2024/04/07 05:34:38;;;;;;;12.25;2.38;;;17.50;99.90;;;;;;5013058;28;20356;-51
2024/04/07 05:37:03;;;;;;;13.77;2.20;;;17.60;99.90;;;;;;5014518;28;20088;-52
2024/04/07 05:39:29;;;;;;;6.15;2.00;;;17.70;99.90;;;;;;5013814;28;20457;-53
2024/04/07 05:41:54;;;;;;;8.45;2.08;;;17.70;99.90;;;;;;5014051;28;20026;-52
2024/04/07 05:44:20;;;;;;;2.33;1.45;;;17.80;99.90;;;;;;5013899;28;20041;-49
2024/04/07 05:46:45;;;;;;;5.72;1.63;;;17.90;99.90;;;;;;5013843;28;20124;-51
2024/04/07 05:49:11;;;;;;;7.07;2.25;;;18.00;99.90;;;;;;5013290;28;20215;-50
2024/04/07 05:51:36;;;;;;;2.67;1.45;;;18.00;99.90;;;;;;5013553;28;20034;-53
2024/04/07 05:54:02;;;;;;;6.60;1.70;;;18.10;99.90;;;;;;4995849;28;20109;-53
2024/04/07 05:56:28;;;;;;;11.98;3.80;;;18.20;99.90;;;;;;5013506;28;20014;-52
2024/04/07 05:58:53;;;;;;;6.53;1.67;;;18.30;99.90;;;;;;5013034;28;20071;-54
2024/04/07 06:01:19;;;;;;;7.97;1.80;;;18.40;99.90;;;;;;5013508;28;20028;-46
2024/04/07 06:03:46;;;;;;;7.35;1.83;;;18.50;99.90;;;;;;5012590;28;20076;-48
2024/04/07 06:06:12;;;;;;;9.73;1.80;;;18.60;99.90;;;;;;5013425;28;20547;-52
2024/04/07 06:08:37;;;;;;;8.68;2.00;;;18.70;99.90;;;;;;5013174;28;20034;-50
2024/04/07 06:11:04;;;;;;;5.28;1.88;;;18.90;99.80;;;;;;5013152;28;20069;-49
2024/04/07 06:13:30;;;;;;;8.40;2.15;;;19.00;99.90;;;;;;5013237;28;20080;-49
2024/04/07 06:15:56;;;;;;;8.18;2.13;;;19.20;99.60;;;;;;5013441;28;20030;-50
2024/04/07 06:18:21;;;;;;;5.50;1.80;;;19.50;99.20;;;;;;5011564;28;20547;-51
2024/04/07 06:20:47;;;;;;;6.63;2.05;;;19.90;98.90;;;;;;5012982;28;20030;-52
2024/04/07 06:23:12;;;;;;;3.80;1.98;;;20.20;98.60;;;;;;5012896;28;20378;-52
2024/04/07 06:25:38;;;;;;;5.60;2.25;;;20.50;98.20;;;;;;4995197;28;20448;-47
2024/04/07 06:28:04;;;;;;;4.13;1.58;;;20.80;97.60;;;;;;5012748;28;20030;-51
2024/04/07 06:30:29;;;;;;;6.55;2.05;;;21.00;97.60;;;;;;5012642;28;20038;-49
2024/04/07 06:32:55;;;;;;;8.98;2.30;;;21.30;97.20;;;;;;5012681;28;20044;-51
2024/04/07 06:35:20;;;;;;;10.85;1.60;;;21.40;96.90;;;;;;5012847;28;20033;-48
2024/04/07 06:37:46;;;;;;;7.43;1.65;;;21.80;96.60;;;;;;5012666;28;20080;-47
2024/04/07 06:40:11;;;;;;;6.55;2.38;;;22.20;95.90;;;;;;5012612;28;20057;-53
2024/04/07 06:42:37;;;;;;;5.72;2.05;;;22.50;95.50;;;;;;4995415;28;20149;-52
2024/04/07 06:45:03;;;;;;;6.30;1.77;;;22.80;95.00;;;;;;5012113;28;20026;-49
2024/04/07 06:47:28;;;;;;;8.43;1.77;;;23.10;94.70;;;;;;4994902;28;20022;-50
2024/04/07 06:49:56;;;;;;;12.77;1.90;;;23.50;94.90;;;;;;5012621;28;20123;-49
2024/04/07 06:52:22;;;;;;;6.00;1.40;;;23.80;94.00;;;;;;5012457;28;20034;-48
2024/04/07 06:54:48;;;;;;;8.50;1.55;;;24.00;93.50;;;;;;5012383;28;20021;-50
2024/04/07 06:57:15;;;;;;;3.88;1.60;;;24.30;92.60;;;;;;5012960;28;20024;-50
2024/04/07 06:59:40;;;;;;;12.20;2.10;;;24.30;92.60;;;;;;4994518;28;20492;-51
2024/04/07 07:02:06;;;;;;;5.85;2.28;;;24.60;92.70;;;;;;5012243;28;20034;-49
2024/04/07 07:04:31;;;;;;;2.47;1.38;;;24.80;92.80;;;;;;5012389;28;20444;-50
2024/04/07 07:06:57;;;;;;;8.15;2.15;;;25.00;92.40;;;;;;5011005;28;20026;-50
2024/04/07 07:09:23;;;;;;;7.15;1.70;;;25.40;92.10;;;;;;5012416;28;20026;-53
2024/04/07 07:11:48;;;;;;;4.72;1.90;;;25.50;91.70;;;;;;5012296;28;20076;-53
2024/04/07 07:14:14;;;;;;;3.72;1.40;;;25.60;91.70;;;;;;5011298;28;20069;-55
2024/04/07 07:16:39;;;;;;;10.90;1.98;;;25.60;91.80;;;;;;5012342;28;20076;-48
2024/04/07 07:19:05;;;;;;;8.98;1.80;;;25.70;91.20;;;;;;5011903;28;20045;-53
2024/04/07 07:21:30;;;;;;;6.03;1.60;;;25.90;90.90;;;;;;5012383;28;20034;-50
2024/04/07 07:23:56;;;;;;;13.23;6.10;;;26.00;90.60;;;;;;5012665;28;20340;-50
2024/04/07 07:26:22;;;;;;;4.68;2.63;;;25.60;90.70;;;;;;5012039;28;20046;-48
2024/04/07 07:28:47;;;;;;;8.82;1.88;;;25.40;91.20;;;;;;5011959;28;20033;-52
2024/04/07 07:31:13;;;;;;;13.32;2.80;;;25.10;91.60;;;;;;5011972;28;20087;-54
2024/04/07 07:33:38;;;;;;;5.00;1.33;;;24.80;92.20;;;;;;5012187;28;20108;-51
2024/04/07 07:36:04;;;;;;;7.82;1.73;;;24.90;92.30;;;;;;5012251;28;20504;-51
2024/04/07 07:38:29;;;;;;;3.63;1.35;;;25.00;92.10;;;;;;4994091;28;20049;-51
2024/04/07 07:40:55;;;;;;;8.75;2.42;;;25.10;92.10;;;;;;5012115;28;20133;-51
2024/04/07 07:43:20;;;;;;;8.85;1.92;;;25.40;92.00;;;;;;5011956;28;20029;-52
2024/04/07 07:45:50;;;;;;;7.93;1.55;;;25.50;91.90;;;;;;5012015;28;20397;-50
2024/04/07 07:48:15;;;;;;;13.38;2.08;;;25.60;91.00;;;;;;5011655;28;20393;-52
2024/04/07 07:50:42;;;;;;;3.90;1.48;;;25.60;91.00;;;;;;5012571;28;20026;-51
2024/04/07 07:53:08;;;;;;;6.80;1.80;;;25.70;90.90;;;;;;5011775;28;20042;-55
2024/04/07 07:55:34;;;;;;;3.47;2.13;;;25.60;90.80;;;;;;5011887;28;20084;-54
2024/04/07 07:58:00;;;;;;;7.45;1.85;;;25.50;90.70;;;;;;5013200;28;20428;-50
2024/04/07 08:00:26;;;;;;;5.10;1.77;;;25.30;91.40;;;;;;5015360;28;20038;-53
2024/04/07 08:02:52;;;;;;;3.10;1.67;;;24.70;92.10;;;;;;5015513;28;20121;-53
2024/04/07 08:05:18;;;;;;;8.38;2.17;;;24.40;92.10;;;;;;5015807;28;20504;-49
2024/04/07 08:07:44;;;;;;;6.60;1.65;;;24.20;92.70;;;;;;5015547;28;20030;-52
2024/04/07 08:10:10;;;;;;;10.60;2.33;;;23.80;93.00;;;;;;5015593;28;20384;-50
2024/04/07 08:12:38;;;;;;;6.95;1.42;;;23.60;93.30;;;;;;5015805;28;20446;-52
2024/04/07 08:15:04;;;;;;;7.90;2.70;;;23.50;93.70;;;;;;5015472;28;20022;-51
2024/04/07 08:17:29;;;;;;;10.30;2.13;;;23.40;94.10;;;;;;5015473;28;20091;-49
2024/04/07 08:19:55;;;;;;;4.88;2.03;;;23.40;94.00;;;;;;5015248;28;20033;-49
2024/04/07 08:22:20;;;;;;;7.90;1.85;;;23.10;93.70;;;;;;5015204;28;20456;-54
2024/04/07 08:24:46;;;;;;;12.65;1.83;;;23.00;94.10;;;;;;5015434;28;20621;-56
2024/04/07 08:27:12;;;;;;;6.35;1.60;;;22.80;94.30;;;;;;5015329;28;20029;-55
2024/04/07 08:29:38;;;;;;;2.83;1.67;;;22.70;94.40;;;;;;5014873;28;20033;-52
2024/04/07 08:32:04;;;;;;;5.35;1.80;;;22.60;95.00;;;;;;5015300;28;20057;-48
2024/04/07 08:34:29;;;;;;;5.80;2.05;;;22.50;95.70;;;;;;5015054;28;20021;-52
2024/04/07 08:36:55;;;;;;;6.20;1.63;;;22.40;96.20;;;;;;5016220;28;20022;-51
2024/04/07 08:39:20;;;;;;;4.68;1.60;;;22.20;96.30;;;;;;5014823;28;20030;-52
2024/04/07 08:41:46;;;;;;;7.32;1.27;;;22.20;96.50;;;;;;5012588;28;20063;-50
2024/04/07 08:44:13;;;;;;;9.52;1.52;;;22.10;96.30;;;;;;5014949;28;20030;-49
2024/04/07 08:46:40;;;;;;;8.48;1.70;;;22.10;96.50;;;;;;5015236;28;20034;-48
2024/04/07 08:49:08;;;;;;;8.15;1.60;;;22.10;96.00;;;;;;5012743;28;20025;-53
2024/04/07 08:51:36;;;;;;;9.00;1.52;;;22.10;96.90;;;;;;4988840;28;20406;-51
2024/04/07 08:54:03;;;;;;;8.48;2.30;;;21.80;97.40;;;;;;4995634;28;20036;-51
2024/04/07 08:56:29;;;;;;;7.25;1.50;;;21.70;97.70;;;;;;4996233;28;20026;-51
2024/04/07 08:58:57;;;;;;;8.10;1.60;;;21.70;97.00;;;;;;4994822;28;20026;-51
2024/04/07 09:01:31;;;;;;;7.20;2.13;;;21.70;96.90;;;;;;4995124;28;20554;-50
2024/04/07 09:03:59;;;;;;;9.48;1.92;;;21.60;96.90;;;;;;4995992;28;20067;-50
2024/04/07 09:06:27;;;;;;;4.15;2.05;;;21.60;97.10;;;;;;4995065;28;20516;-48
2024/04/07 09:08:56;;;;;;;6.63;1.65;;;21.50;97.10;;;;;;4994081;28;20092;-49
2024/04/07 09:11:21;;;;;;;5.45;1.80;;;21.50;97.40;;;;;;4994688;28;20030;-51
2024/04/07 09:13:47;;;;;;;7.32;2.35;;;21.60;97.80;;;;;;4994803;28;20034;-51
2024/04/07 09:16:13;;;;;;;6.55;1.52;;;21.60;97.70;;;;;;4994644;28;20030;-53
2024/04/07 09:18:38;;;;;;;9.32;1.92;;;21.70;97.50;;;;;;4997995;28;20026;-49
2024/04/07 09:21:04;;;;;;;4.43;2.05;;;21.70;97.80;;;;;;5008829;28;20053;-48
2024/04/07 09:23:30;;;;;;;8.82;1.63;;;21.80;97.80;;;;;;4994536;28;20027;-50
2024/04/07 09:25:56;;;;;;;8.25;2.03;;;22.00;98.20;;;;;;4976996;28;20037;-50
2024/04/07 09:28:22;;;;;;;11.88;2.97;;;22.10;98.20;;;;;;4994599;28;20406;-52
2024/04/07 09:30:48;;;;;;;4.00;1.80;;;22.30;98.00;;;;;;4996641;28;20030;-49
2024/04/07 09:33:13;;;;;;;9.73;1.65;;;22.40;97.90;;;;;;5014084;28;20025;-52
2024/04/07 09:35:39;;;;;;;8.05;1.98;;;22.60;97.60;;;;;;5033517;28;20044;-46
2024/04/07 09:38:05;;;;;;;6.78;1.75;;;23.00;97.20;;;;;;4978081;28;20509;-51
2024/04/07 09:40:31;;;;;;;7.65;1.70;;;23.50;96.60;;;;;;4995738;28;20030;-51
2024/04/07 09:42:59;;;;;;;8.10;1.85;;;23.90;95.70;;;;;;4983141;28;20027;-52
2024/04/07 09:45:25;;;;;;;11.75;1.98;;;24.30;94.80;;;;;;4994183;28;20039;-51
2024/04/07 09:47:58;;;;;;;13.25;7.57;;;24.30;94.50;;;;;;4994076;28;20031;-53
2024/04/07 09:50:37;;;;;;;18.95;5.28;;;24.60;95.10;;;;;;4993779;28;20056;-54
2024/04/07 09:53:19;;;;;;;26.92;16.05;;;24.90;95.20;;;;;;4993912;28;20047;-50
2024/04/07 09:55:50;;;;;;;11.23;2.88;;;25.10;93.40;;;;;;4995181;28;20026;-49
2024/04/07 09:58:16;;;;;;;5.63;1.40;;;25.00;94.00;;;;;;5004876;28;20029;-51
2024/04/07 10:00:42;;;;;;;7.13;1.88;;;25.00;93.90;;;;;;4993578;28;20030;-53
2024/04/07 10:03:08;;;;;;;6.00;2.00;;;24.80;93.60;;;;;;4993356;28;20624;-50
2024/04/07 10:05:34;;;;;;;9.13;2.20;;;24.60;94.10;;;;;;4975981;28;20050;-49
2024/04/07 10:07:59;;;;;;;11.35;2.13;;;24.40;94.00;;;;;;5003171;28;20033;-52
2024/04/07 10:10:25;;;;;;;8.45;1.92;;;24.30;94.10;;;;;;5013082;28;20543;-49
2024/04/07 10:12:53;;;;;;;4.25;1.50;;;24.40;94.60;;;;;;5012873;28;20072;-50
2024/04/07 10:15:20;;;;;;;4.25;1.67;;;24.60;94.40;;;;;;5011434;28;20105;-48
2024/04/07 10:17:46;;;;;;;6.88;1.60;;;24.60;94.10;;;;;;5003007;28;20022;-50
2024/04/07 10:20:14;;;;;;;4.88;1.80;;;24.60;94.30;;;;;;5012004;28;20500;-53
2024/04/07 10:22:43;;;;;;;8.52;1.92;;;24.60;93.60;;;;;;4998192;28;20031;-61
2024/04/07 10:25:10;;;;;;;12.90;1.63;;;24.50;93.90;;;;;;4993402;28;20026;-49
2024/04/07 10:27:43;;;;;;;9.13;1.65;;;24.50;94.70;;;;;;4975807;28;20397;-54
2024/04/07 10:30:12;;;;;;;8.88;1.48;;;24.70;93.90;;;;;;4993306;28;20026;-52
2024/04/07 10:32:39;;;;;;;6.40;1.75;;;24.70;93.10;;;;;;4993599;28;20033;-53
2024/04/07 10:35:10;;;;;;;9.00;1.73;;;24.70;92.80;;;;;;4993045;28;20018;-52
2024/04/07 10:37:38;;;;;;;4.60;1.17;;;24.70;93.60;;;;;;4994135;28;20546;-52
2024/04/07 10:40:13;;;;;;;4.45;1.55;;;24.70;93.00;;;;;;4992804;28;20053;-54
2024/04/07 10:42:39;;;;;;;5.03;2.00;;;24.70;93.00;;;;;;4993137;28;20025;-50
2024/04/07 10:45:05;;;;;;;5.20;1.23;;;24.80;92.20;;;;;;4993205;28;20022;-52
2024/04/07 10:47:32;;;;;;;6.80;1.88;;;24.70;92.40;;;;;;4992934;28;20038;-50
2024/04/07 10:49:58;;;;;;;4.10;1.80;;;24.60;92.70;;;;;;4994056;28;20034;-49
2024/04/07 10:52:26;;;;;;;4.53;1.50;;;24.60;93.40;;;;;;4975390;28;20089;-52
2024/04/07 10:54:56;;;;;;;7.25;1.60;;;24.40;93.40;;;;;;4975696;28;20034;-49
2024/04/07 10:57:22;;;;;;;26.85;2.92;;;24.30;93.30;;;;;;4975218;28;20058;-54
2024/04/07 10:59:47;;;;;;;4.68;1.33;;;24.40;92.70;;;;;;4994098;28;20384;-54
2024/04/07 11:02:14;;;;;;;9.52;2.17;;;24.30;91.90;;;;;;4992733;28;20038;-54
2024/04/07 11:04:40;;;;;;;8.90;1.55;;;24.30;93.00;;;;;;5003205;28;20033;-51
2024/04/07 11:07:06;;;;;;;10.68;1.48;;;24.30;93.40;;;;;;5013289;28;20037;-50
2024/04/07 11:09:32;;;;;;;16.80;11.02;;;24.20;93.60;;;;;;4994509;28;20176;-52
2024/04/07 11:11:59;;;;;;;8.88;3.55;;;24.10;93.30;;;;;;5012083;28;20037;-49
2024/04/07 11:14:26;;;;;;;11.93;4.93;;;24.10;93.70;;;;;;4983287;28;20096;-52
2024/04/07 11:16:54;;;;;;;9.00;1.88;;;24.10;93.50;;;;;;5013975;28;20591;-54
2024/04/07 11:19:25;;;;;;;7.80;1.45;;;24.20;93.50;;;;;;5018751;28;20022;-54
2024/04/07 11:21:51;;;;;;;10.95;1.58;;;24.10;92.60;;;;;;4999483;28;20036;-52
2024/04/07 11:24:18;;;;;;;7.63;1.90;;;24.10;93.20;;;;;;5031351;28;20123;-53
2024/04/07 11:26:44;;;;;;;8.23;1.27;;;24.10;92.00;;;;;;5011629;28;20092;-58
2024/04/07 11:29:12;;;;;;;4.45;2.50;;;24.10;93.00;;;;;;5011715;28;20441;-55
2024/04/07 11:31:38;;;;;;;5.15;1.38;;;24.10;91.60;;;;;;5004589;28;20117;-53
2024/04/07 11:34:04;;;;;;;5.97;1.20;;;24.10;91.80;;;;;;4998311;28;20104;-56
2024/04/07 11:36:30;;;;;;;6.32;1.40;;;24.00;92.10;;;;;;5018612;28;20023;-55
2024/04/07 11:38:55;;;;;;;4.82;1.23;;;24.10;91.70;;;;;;5011693;28;20084;-55
2024/04/07 11:41:21;;;;;;;6.57;1.30;;;23.90;91.20;;;;;;5011090;28;20119;-50
2024/04/07 11:43:48;;;;;;;3.53;1.40;;;23.90;92.20;;;;;;4993613;28;20485;-53
2024/04/07 11:46:14;;;;;;;10.23;1.30;;;23.90;91.20;;;;;;5011343;28;20058;-56
2024/04/07 11:48:40;;;;;;;4.30;1.38;;;24.00;92.50;;;;;;5011272;28;20053;-49
2024/04/07 11:51:06;;;;;;;4.53;1.00;;;24.10;91.40;;;;;;4993504;28;20018;-54
2024/04/07 11:53:31;;;;;;;3.80;1.40;;;24.20;91.70;;;;;;5011373;28;20497;-53
2024/04/07 11:55:57;;;;;;;8.63;1.25;;;24.20;91.70;;;;;;5011406;28;20028;-49
2024/04/07 11:58:23;;;;;;;2.60;1.50;;;24.20;91.70;;;;;;5011573;28;20496;-50
2024/04/07 12:00:49;;;;;;;4.60;1.67;;;24.10;91.20;;;;;;4993543;28;20030;-50
2024/04/07 12:03:15;;;;;;;2.72;1.20;;;24.10;91.80;;;;;;4993367;28;20147;-49
2024/04/07 12:05:42;;;;;;;4.00;1.30;;;23.90;91.00;;;;;;4993885;28;20181;-53
2024/04/07 12:08:07;;;;;;;1.63;1.10;;;23.90;91.40;;;;;;5004523;28;20029;-50
2024/04/07 12:10:33;;;;;;;6.05;1.42;;;23.90;91.70;;;;;;4974342;28;20022;-51
2024/04/07 12:12:58;;;;;;;2.47;1.20;;;23.90;91.20;;;;;;4974706;28;20197;-53
2024/04/07 12:15:24;;;;;;;6.00;1.13;;;23.90;91.60;;;;;;4973884;28;20023;-53
2024/04/07 12:17:50;;;;;;;3.30;1.80;;;23.90;91.90;;;;;;4972255;28;20027;-51
2024/04/07 12:20:15;;;;;;;4.03;1.33;;;23.90;91.90;;;;;;4989326;28;20033;-51
2024/04/07 12:22:43;;;;;;;6.40;1.30;;;24.10;91.70;;;;;;4992052;28;20034;-53
2024/04/07 12:25:08;;;;;;;8.05;2.03;;;24.20;91.50;;;;;;4991238;28;20498;-53
2024/04/07 12:27:34;;;;;;;4.90;1.65;;;24.10;90.40;;;;;;4974539;28;20030;-54
2024/04/07 12:29:59;;;;;;;5.57;1.20;;;24.20;90.60;;;;;;4991884;28;20031;-55
2024/04/07 12:32:25;;;;;;;2.53;1.45;;;24.20;91.30;;;;;;4991890;28;20031;-53
2024/04/07 12:34:51;;;;;;;6.57;1.48;;;24.20;91.60;;;;;;4991920;28;20025;-50
2024/04/07 12:37:17;;;;;;;2.35;1.15;;;24.30;90.70;;;;;;4975040;28;20150;-54
2024/04/07 12:39:42;;;;;;;4.18;1.45;;;24.30;91.00;;;;;;4974210;28;20367;-53
2024/04/07 12:42:08;;;;;;;7.80;1.70;;;24.30;90.80;;;;;;4991954;28;20023;-54